Time;durP1;ratioP1;P1;durP2;ratioP2;P2;SDS_P1;SDS_P2;PMS_P1;PMS_P2;Temp;Humidity;BMP_temperature;BMP_pressure;BME280_temperature;BME280_humidity;BME280_pressure;Samples;Min_cycle;Max_cycle;Signal;HPM_P1;HPM_P2
2023/08/25 00:01:31;;;;;;;2.15;1.00;;;;;;;;;;4939614;29;20028;-78
2023/08/25 00:03:57;;;;;;;3.83;1.23;;;;;;;;;;4939416;29;20040;-78
2023/08/25 00:06:23;;;;;;;2.55;0.90;;;;;;;;;;4939444;29;20032;-78
2023/08/25 00:08:49;;;;;;;4.18;1.10;;;;;;;;;;4939351;29;20036;-77
2023/08/25 00:11:15;;;;;;;4.38;1.25;;;;;;;;;;4939457;29;20024;-78
2023/08/25 00:13:41;;;;;;;3.00;0.90;;;;;;;;;;4922287;29;20056;-78
2023/08/25 00:16:09;;;;;;;2.15;0.80;;;;;;;;;;4939625;29;20145;-78
2023/08/25 00:18:35;;;;;;;2.80;1.10;;;;;;;;;;4939199;29;20164;-78
2023/08/25 00:21:01;;;;;;;1.77;0.98;;;;;;;;;;4939198;29;20023;-78
2023/08/25 00:23:27;;;;;;;2.50;1.10;;;;;;;;;;4939080;29;20058;-78
2023/08/25 00:25:53;;;;;;;3.53;1.27;;;;;;;;;;4922412;29;20028;-79
2023/08/25 00:28:20;;;;;;;2.83;1.17;;;;;;;;;;4939159;29;20412;-78
2023/08/25 00:30:47;;;;;;;5.32;1.35;;;;;;;;;;4922130;29;20052;-80
2023/08/25 00:33:13;;;;;;;2.80;1.08;;;;;;;;;;4939258;29;20124;-78
2023/08/25 00:35:42;;;;;;;4.32;1.27;;;;;;;;;;4942587;29;20043;-79
2023/08/25 00:38:08;;;;;;;3.05;1.20;;;;;;;;;;4924126;29;20031;-79
2023/08/25 00:40:37;;;;;;;3.35;1.10;;;;;;;;;;4940880;29;20024;-79
2023/08/25 00:43:03;;;;;;;3.60;1.23;;;;;;;;;;4945311;29;20396;-78
2023/08/25 00:45:31;;;;;;;6.05;1.50;;;;;;;;;;4942649;29;20031;-78
2023/08/25 00:47:57;;;;;;;4.03;1.23;;;;;;;;;;4942463;29;20039;-78
2023/08/25 00:50:23;;;;;;;3.28;1.20;;;;;;;;;;4942194;29;20027;-78
2023/08/25 00:52:50;;;;;;;3.58;1.40;;;;;;;;;;4942393;29;20038;-76
2023/08/25 00:55:16;;;;;;;3.50;1.35;;;;;;;;;;4942120;29;20028;-78
2023/08/25 00:57:42;;;;;;;4.13;1.17;;;;;;;;;;4942151;29;20024;-78
2023/08/25 01:00:11;;;;;;;3.10;1.23;;;;;;;;;;4942081;29;20106;-79
2023/08/25 01:02:37;;;;;;;4.53;1.30;;;;;;;;;;4928695;29;20078;-80
2023/08/25 01:05:03;;;;;;;2.88;1.20;;;;;;;;;;4942131;29;20497;-80
2023/08/25 01:07:29;;;;;;;3.75;1.38;;;;;;;;;;4924880;29;20057;-80
2023/08/25 01:09:56;;;;;;;3.00;1.15;;;;;;;;;;4942196;29;20024;-81
2023/08/25 01:12:34;;;;;;;3.13;1.20;;;;;;;;;;4941591;29;20051;-80
2023/08/25 01:15:07;;;;;;;3.72;1.02;;;;;;;;;;4942008;29;20024;-80
2023/08/25 01:17:38;;;;;;;3.13;1.35;;;;;;;;;;4954753;29;20030;-79
2023/08/25 01:20:08;;;;;;;2.88;1.17;;;;;;;;;;4941726;29;20028;-80
2023/08/25 01:22:36;;;;;;;4.97;1.58;;;;;;;;;;4941692;29;20107;-79
2023/08/25 01:25:20;;;;;;;1.65;0.90;;;;;;;;;;4941736;29;20032;-79
2023/08/25 01:27:46;;;;;;;4.47;1.38;;;;;;;;;;4941840;29;20397;-79
2023/08/25 01:30:13;;;;;;;4.70;1.40;;;;;;;;;;4924874;29;20035;-79
2023/08/25 01:32:40;;;;;;;2.85;1.17;;;;;;;;;;4924688;29;20034;-79
2023/08/25 01:35:06;;;;;;;3.03;1.20;;;;;;;;;;4941450;29;20032;-79
2023/08/25 01:37:36;;;;;;;2.38;1.20;;;;;;;;;;4941642;29;20035;-79
2023/08/25 01:40:05;;;;;;;4.88;1.50;;;;;;;;;;4928498;29;20031;-79
2023/08/25 01:42:33;;;;;;;4.20;1.20;;;;;;;;;;4942293;29;20050;-79
2023/08/25 01:45:00;;;;;;;3.50;1.30;;;;;;;;;;4926023;29;20028;-79
2023/08/25 01:47:28;;;;;;;3.70;1.33;;;;;;;;;;4941191;29;20584;-77
2023/08/25 01:49:55;;;;;;;5.13;1.45;;;;;;;;;;4941085;29;20107;-77
2023/08/25 01:52:21;;;;;;;4.07;1.33;;;;;;;;;;4941372;29;20039;-76
2023/08/25 01:54:50;;;;;;;4.90;1.50;;;;;;;;;;4941149;29;20016;-77
2023/08/25 01:57:16;;;;;;;5.07;1.60;;;;;;;;;;4941253;29;20028;-77
2023/08/25 01:59:42;;;;;;;4.18;1.38;;;;;;;;;;4924132;29;20476;-78
2023/08/25 02:02:08;;;;;;;3.60;1.52;;;;;;;;;;4924031;29;20028;-77
2023/08/25 02:04:34;;;;;;;4.47;1.38;;;;;;;;;;4940763;29;20035;-77
2023/08/25 02:07:00;;;;;;;6.00;1.25;;;;;;;;;;4941373;29;20035;-79
2023/08/25 02:09:26;;;;;;;4.00;1.50;;;;;;;;;;4923800;29;20028;-79
2023/08/25 02:11:52;;;;;;;4.75;1.65;;;;;;;;;;4923739;29;20059;-79
2023/08/25 02:14:18;;;;;;;3.10;1.38;;;;;;;;;;4940829;29;20024;-79
2023/08/25 02:16:44;;;;;;;4.95;2.15;;;;;;;;;;4923978;29;20035;-79
2023/08/25 02:19:10;;;;;;;5.53;1.85;;;;;;;;;;4940711;29;20024;-79
2023/08/25 02:21:36;;;;;;;4.38;1.58;;;;;;;;;;4940687;29;20036;-79
2023/08/25 02:24:02;;;;;;;7.45;1.50;;;;;;;;;;4940686;29;20050;-79
2023/08/25 02:26:28;;;;;;;5.10;1.50;;;;;;;;;;4923776;29;20031;-79
2023/08/25 02:28:54;;;;;;;4.85;1.65;;;;;;;;;;4940453;29;20042;-78
2023/08/25 02:31:20;;;;;;;7.18;1.73;;;;;;;;;;4940573;29;20036;-78
2023/08/25 02:33:46;;;;;;;4.05;1.50;;;;;;;;;;4940623;29;20099;-78
2023/08/25 02:36:12;;;;;;;6.07;2.00;;;;;;;;;;4940107;29;20114;-78
2023/08/25 02:38:38;;;;;;;3.15;1.25;;;;;;;;;;4918179;29;20055;-78
2023/08/25 02:41:04;;;;;;;3.88;1.60;;;;;;;;;;4933456;29;20034;-78
2023/08/25 02:43:30;;;;;;;5.82;1.58;;;;;;;;;;4926038;29;20497;-78
2023/08/25 02:45:59;;;;;;;4.32;1.67;;;;;;;;;;4940569;29;20035;-78
2023/08/25 02:48:26;;;;;;;5.93;1.73;;;;;;;;;;4940410;29;20042;-78
2023/08/25 02:50:52;;;;;;;5.60;1.90;;;;;;;;;;4940219;29;20059;-80
2023/08/25 02:53:18;;;;;;;3.92;1.40;;;;;;;;;;4940040;29;20035;-79
2023/08/25 02:55:44;;;;;;;4.97;1.40;;;;;;;;;;4939617;29;20031;-79
2023/08/25 02:58:10;;;;;;;3.60;1.48;;;;;;;;;;4939601;29;20024;-79
2023/08/25 03:00:36;;;;;;;6.70;1.70;;;;;;;;;;4940483;29;20092;-78
2023/08/25 03:03:02;;;;;;;3.55;1.70;;;;;;;;;;4940218;29;20027;-79
2023/08/25 03:05:28;;;;;;;6.38;1.27;;;;;;;;;;4939630;29;20157;-79
2023/08/25 03:07:54;;;;;;;5.93;1.95;;;;;;;;;;4923379;29;20024;-78
2023/08/25 03:10:21;;;;;;;4.55;2.08;;;;;;;;;;4940093;29;20503;-78
2023/08/25 03:12:47;;;;;;;4.38;1.60;;;;;;;;;;4939917;29;20409;-78
2023/08/25 03:15:13;;;;;;;4.88;1.92;;;;;;;;;;4940085;29;20028;-78
2023/08/25 03:17:41;;;;;;;6.07;1.65;;;;;;;;;;4922912;29;20039;-77
2023/08/25 03:20:07;;;;;;;3.95;1.85;;;;;;;;;;4939771;29;20110;-78
2023/08/25 03:22:33;;;;;;;4.05;1.58;;;;;;;;;;4939714;29;20050;-79
2023/08/25 03:24:59;;;;;;;6.95;1.85;;;;;;;;;;4923046;29;20032;-79
2023/08/25 03:27:26;;;;;;;3.55;1.50;;;;;;;;;;4939736;29;20034;-79
2023/08/25 03:29:52;;;;;;;4.88;2.10;;;;;;;;;;4939929;29;20032;-79
2023/08/25 03:32:18;;;;;;;6.72;2.17;;;;;;;;;;4939864;29;20032;-79
2023/08/25 03:34:44;;;;;;;4.43;1.70;;;;;;;;;;4940079;29;20024;-79
2023/08/25 03:37:11;;;;;;;5.03;1.70;;;;;;;;;;4922793;29;20032;-79
2023/08/25 03:39:37;;;;;;;4.68;1.92;;;;;;;;;;4927314;29;20027;-79
2023/08/25 03:42:03;;;;;;;3.28;1.40;;;;;;;;;;4922950;29;20027;-79
2023/08/25 03:44:29;;;;;;;3.80;1.50;;;;;;;;;;4939729;29;20036;-79
2023/08/25 03:46:55;;;;;;;5.63;1.92;;;;;;;;;;4922716;29;20079;-79
2023/08/25 03:49:23;;;;;;;6.03;2.00;;;;;;;;;;4939451;29;20110;-79
2023/08/25 03:51:49;;;;;;;4.95;2.25;;;;;;;;;;4939553;29;20024;-79
2023/08/25 03:54:15;;;;;;;6.53;2.55;;;;;;;;;;4922400;29;20030;-79
2023/08/25 03:56:41;;;;;;;4.28;2.00;;;;;;;;;;4939580;29;20035;-79
2023/08/25 03:59:07;;;;;;;3.80;1.67;;;;;;;;;;4939596;29;20027;-79
2023/08/25 04:01:33;;;;;;;3.85;1.58;;;;;;;;;;4939691;29;20028;-79
2023/08/25 04:04:01;;;;;;;3.53;1.50;;;;;;;;;;4922763;29;20027;-79
2023/08/25 04:06:27;;;;;;;5.03;2.40;;;;;;;;;;4939264;29;20469;-79
2023/08/25 04:08:53;;;;;;;3.42;1.38;;;;;;;;;;4940657;29;20039;-79
2023/08/25 04:11:19;;;;;;;5.13;1.80;;;;;;;;;;4926376;29;20135;-79
2023/08/25 04:13:45;;;;;;;6.82;1.55;;;;;;;;;;4943366;29;20023;-80
2023/08/25 04:16:11;;;;;;;2.30;1.20;;;;;;;;;;4943410;29;20068;-79
2023/08/25 04:18:37;;;;;;;2.85;1.08;;;;;;;;;;4943227;29;20024;-79
2023/08/25 04:21:03;;;;;;;2.92;1.20;;;;;;;;;;4942841;29;20485;-78
2023/08/25 04:23:29;;;;;;;4.78;1.40;;;;;;;;;;4926094;29;20052;-79
2023/08/25 04:25:56;;;;;;;3.38;1.23;;;;;;;;;;4943030;29;20099;-79
2023/08/25 04:28:22;;;;;;;3.53;1.50;;;;;;;;;;4942899;29;20024;-80
2023/08/25 04:30:52;;;;;;;4.55;1.20;;;;;;;;;;4942907;29;20030;-79
2023/08/25 04:33:18;;;;;;;3.83;1.15;;;;;;;;;;4943063;29;20070;-79
2023/08/25 04:35:44;;;;;;;3.45;1.15;;;;;;;;;;4942745;29;20023;-79
2023/08/25 04:38:10;;;;;;;4.53;1.35;;;;;;;;;;4940749;29;20094;-79
2023/08/25 04:40:36;;;;;;;2.70;0.88;;;;;;;;;;4931922;29;20035;-78
2023/08/25 04:43:02;;;;;;;3.08;1.00;;;;;;;;;;4942743;29;20031;-78
2023/08/25 04:45:28;;;;;;;2.97;1.20;;;;;;;;;;4925899;29;20031;-78
2023/08/25 04:47:54;;;;;;;3.78;1.23;;;;;;;;;;4942469;29;20031;-78
2023/08/25 04:50:20;;;;;;;2.90;1.15;;;;;;;;;;4942555;29;20031;-78
2023/08/25 04:52:46;;;;;;;3.20;1.30;;;;;;;;;;4942241;29;20028;-78
2023/08/25 04:55:13;;;;;;;2.72;1.00;;;;;;;;;;4925566;29;20381;-78
2023/08/25 04:57:41;;;;;;;3.83;1.20;;;;;;;;;;4942479;29;20913;-78
2023/08/25 05:00:08;;;;;;;3.70;1.02;;;;;;;;;;4942559;29;20036;-78
2023/08/25 05:02:34;;;;;;;5.30;1.13;;;;;;;;;;4925713;29;20035;-78
2023/08/25 05:05:03;;;;;;;5.05;1.30;;;;;;;;;;4925325;29;20035;-79
2023/08/25 05:07:29;;;;;;;2.90;1.13;;;;;;;;;;4942437;29;20500;-78
2023/08/25 05:09:55;;;;;;;3.47;0.90;;;;;;;;;;4942709;29;20155;-78
2023/08/25 05:12:21;;;;;;;3.45;0.98;;;;;;;;;;4925047;29;20056;-78
2023/08/25 05:14:47;;;;;;;2.65;1.05;;;;;;;;;;4942314;29;20083;-79
2023/08/25 05:17:13;;;;;;;4.07;1.25;;;;;;;;;;4924756;29;20027;-78
2023/08/25 05:19:39;;;;;;;3.63;0.90;;;;;;;;;;4924513;29;20032;-79
2023/08/25 05:22:05;;;;;;;4.75;1.17;;;;;;;;;;4924051;29;20082;-78
2023/08/25 05:24:31;;;;;;;3.03;1.00;;;;;;;;;;4924923;29;20095;-78
2023/08/25 05:26:57;;;;;;;5.47;1.00;;;;;;;;;;4941784;29;20032;-78
2023/08/25 05:29:25;;;;;;;3.83;1.05;;;;;;;;;;4925146;29;20095;-78
2023/08/25 05:31:51;;;;;;;1.90;0.88;;;;;;;;;;4941736;29;20024;-78
2023/08/25 05:34:17;;;;;;;2.70;0.90;;;;;;;;;;4941676;29;20043;-78
2023/08/25 05:36:43;;;;;;;4.35;0.98;;;;;;;;;;4941785;29;20019;-79
2023/08/25 05:39:09;;;;;;;3.35;1.00;;;;;;;;;;4932224;29;20028;-79
2023/08/25 05:41:35;;;;;;;2.95;1.05;;;;;;;;;;4938549;29;20524;-78
2023/08/25 05:44:03;;;;;;;2.53;0.95;;;;;;;;;;4941586;29;20042;-78
2023/08/25 05:46:30;;;;;;;6.95;1.15;;;;;;;;;;4924470;29;20421;-79
2023/08/25 05:48:56;;;;;;;3.13;0.95;;;;;;;;;;4941597;29;20055;-78
2023/08/25 05:51:22;;;;;;;3.20;0.75;;;;;;;;;;4924274;29;20551;-78
2023/08/25 05:53:48;;;;;;;3.65;0.77;;;;;;;;;;4941438;29;20027;-78
2023/08/25 05:56:14;;;;;;;3.15;1.00;;;;;;;;;;4941286;29;20027;-78
2023/08/25 05:58:41;;;;;;;4.88;0.90;;;;;;;;;;4941348;29;20028;-79
2023/08/25 06:01:08;;;;;;;4.50;0.90;;;;;;;;;;4941528;29;20024;-79
2023/08/25 06:03:34;;;;;;;3.38;0.82;;;;;;;;;;4924294;29;20031;-79
2023/08/25 06:06:00;;;;;;;2.53;0.75;;;;;;;;;;4940981;29;20481;-79
2023/08/25 06:08:26;;;;;;;3.30;0.80;;;;;;;;;;4941210;29;20056;-79
2023/08/25 06:10:52;;;;;;;5.50;1.00;;;;;;;;;;4940745;29;20059;-79
2023/08/25 06:13:19;;;;;;;3.83;0.98;;;;;;;;;;4941102;29;20346;-79
2023/08/25 06:15:45;;;;;;;3.75;0.85;;;;;;;;;;4940932;29;20024;-79
2023/08/25 06:18:11;;;;;;;2.45;0.80;;;;;;;;;;4941132;29;20024;-79
2023/08/25 06:20:40;;;;;;;2.65;1.00;;;;;;;;;;4940737;29;20626;-79
2023/08/25 06:23:06;;;;;;;2.53;0.85;;;;;;;;;;4940774;29;20048;-77
2023/08/25 06:25:32;;;;;;;4.55;1.20;;;;;;;;;;4940439;29;20552;-77
2023/08/25 06:27:59;;;;;;;1.95;1.05;;;;;;;;;;4940923;29;20118;-78
2023/08/25 06:30:26;;;;;;;4.38;1.33;;;;;;;;;;4923526;29;20107;-78
2023/08/25 06:32:52;;;;;;;5.03;1.40;;;;;;;;;;4940311;29;20032;-77
2023/08/25 06:35:18;;;;;;;3.65;1.00;;;;;;;;;;4940166;29;20020;-75
2023/08/25 06:37:44;;;;;;;2.83;1.05;;;;;;;;;;4940740;29;20038;-75
2023/08/25 06:40:10;;;;;;;3.47;1.20;;;;;;;;;;4927502;29;20028;-76
2023/08/25 06:42:39;;;;;;;2.40;0.95;;;;;;;;;;4940388;29;20106;-77
2023/08/25 06:45:07;;;;;;;3.53;0.80;;;;;;;;;;4940460;29;20489;-75
2023/08/25 06:47:34;;;;;;;3.53;0.77;;;;;;;;;;4923384;29;20039;-79
2023/08/25 06:50:00;;;;;;;2.75;0.88;;;;;;;;;;4940598;29;20803;-79
2023/08/25 06:52:26;;;;;;;1.90;0.90;;;;;;;;;;4923533;29;20031;-78
2023/08/25 06:54:52;;;;;;;1.45;0.60;;;;;;;;;;4940236;29;20035;-79
2023/08/25 06:57:18;;;;;;;3.65;0.93;;;;;;;;;;4940463;29;20082;-78
2023/08/25 06:59:44;;;;;;;3.92;1.00;;;;;;;;;;4940368;29;20023;-78
2023/08/25 07:02:10;;;;;;;5.40;1.00;;;;;;;;;;4940340;29;20036;-76
2023/08/25 07:04:44;;;;;;;3.50;0.70;;;;;;;;;;4940075;29;20028;-77
2023/08/25 07:07:10;;;;;;;2.70;0.80;;;;;;;;;;4940297;29;20504;-78
2023/08/25 07:09:37;;;;;;;2.65;0.70;;;;;;;;;;4940227;29;20032;-79
2023/08/25 07:12:04;;;;;;;5.72;0.85;;;;;;;;;;4939991;29;20037;-80
2023/08/25 07:14:31;;;;;;;2.70;0.80;;;;;;;;;;4940202;29;20024;-78
2023/08/25 07:16:57;;;;;;;2.55;0.88;;;;;;;;;;4927138;29;20114;-77
2023/08/25 07:19:23;;;;;;;2.72;0.70;;;;;;;;;;4921933;29;20570;-74
2023/08/25 07:21:49;;;;;;;1.60;0.60;;;;;;;;;;4938728;29;20114;-77
2023/08/25 07:24:15;;;;;;;2.58;0.85;;;;;;;;;;4940041;29;20436;-77
2023/08/25 07:26:41;;;;;;;5.30;1.27;;;;;;;;;;4921792;29;20449;-76
2023/08/25 07:29:08;;;;;;;2.72;0.50;;;;;;;;;;4939764;29;20404;-76
2023/08/25 07:31:34;;;;;;;2.38;0.52;;;;;;;;;;4922538;29;20032;-76
2023/08/25 07:34:00;;;;;;;2.58;0.70;;;;;;;;;;4939720;29;20413;-76
2023/08/25 07:36:26;;;;;;;3.30;0.68;;;;;;;;;;4939918;29;20054;-76
2023/08/25 07:38:52;;;;;;;1.85;0.65;;;;;;;;;;4932582;29;20029;-77
2023/08/25 07:41:21;;;;;;;3.20;0.60;;;;;;;;;;4916378;29;20512;-76
2023/08/25 07:43:48;;;;;;;2.30;0.65;;;;;;;;;;4922640;29;20024;-76
2023/08/25 07:46:14;;;;;;;1.75;0.55;;;;;;;;;;4943807;29;20075;-77
2023/08/25 07:48:40;;;;;;;1.52;0.60;;;;;;;;;;4943636;29;20051;-76
2023/08/25 07:51:06;;;;;;;1.00;0.40;;;;;;;;;;4943421;29;20024;-76
2023/08/25 07:53:32;;;;;;;3.03;0.70;;;;;;;;;;4943702;29;20020;-76
2023/08/25 07:55:58;;;;;;;2.70;0.40;;;;;;;;;;4943398;29;20028;-77
2023/08/25 07:58:25;;;;;;;2.10;0.60;;;;;;;;;;4943829;29;20031;-77
2023/08/25 08:00:51;;;;;;;1.85;0.60;;;;;;;;;;4943652;29;20028;-76
2023/08/25 08:03:17;;;;;;;2.80;0.57;;;;;;;;;;4926404;29;20034;-76
2023/08/25 08:05:43;;;;;;;2.55;0.50;;;;;;;;;;4943201;29;20028;-77
2023/08/25 08:08:09;;;;;;;1.75;0.50;;;;;;;;;;4926358;29;20374;-76
2023/08/25 08:10:36;;;;;;;2.72;0.50;;;;;;;;;;4926067;29;20038;-77
2023/08/25 08:13:03;;;;;;;3.28;0.73;;;;;;;;;;4943373;29;20026;-76
2023/08/25 08:15:30;;;;;;;1.75;0.50;;;;;;;;;;4926076;29;20398;-76
2023/08/25 08:17:56;;;;;;;2.92;0.75;;;;;;;;;;4943350;29;20047;-76
2023/08/25 08:20:23;;;;;;;2.58;0.60;;;;;;;;;;4942734;29;20024;-76
2023/08/25 08:22:49;;;;;;;;;;;;;;;;;;4943480;29;20123;-77
2023/08/25 08:25:15;;;;;;;2.58;0.60;;;;;;;;;;4942951;29;19993;-77
2023/08/25 08:27:42;;;;;;;4.85;0.90;;;;;;;;;;4925805;29;20028;-76
2023/08/25 08:30:11;;;;;;;4.78;1.00;;;;;;;;;;4942878;29;20024;-77
2023/08/25 08:32:38;;;;;;;1.45;0.52;;;;;;;;;;4943219;29;20042;-77
2023/08/25 08:35:08;;;;;;;4.22;0.60;;;;;;;;;;4942532;29;20027;-76
2023/08/25 08:37:34;;;;;;;3.20;1.05;;;;;;;;;;4925751;29;20028;-76
2023/08/25 08:40:00;;;;;;;1.38;0.50;;;;;;;;;;4929875;29;20102;-77
2023/08/25 08:42:28;;;;;;;3.67;0.60;;;;;;;;;;4942689;29;20748;-76
2023/08/25 08:44:56;;;;;;;1.08;0.47;;;;;;;;;;4942715;29;20034;-77
2023/08/25 08:47:23;;;;;;;1.90;0.80;;;;;;;;;;4942718;29;20032;-77
2023/08/25 08:49:49;;;;;;;3.90;1.02;;;;;;;;;;4942207;29;20028;-75
2023/08/25 08:52:17;;;;;;;2.67;0.70;;;;;;;;;;4925442;29;20102;-77
2023/08/25 08:54:44;;;;;;;1.52;0.60;;;;;;;;;;4942226;29;20020;-77
2023/08/25 08:57:11;;;;;;;1.92;0.60;;;;;;;;;;4942775;29;20032;-77
2023/08/25 08:59:37;;;;;;;2.35;0.63;;;;;;;;;;4942320;29;20023;-76
2023/08/25 09:02:04;;;;;;;2.22;0.50;;;;;;;;;;4942459;29;20028;-77
2023/08/25 09:04:30;;;;;;;2.30;0.50;;;;;;;;;;4942153;29;20024;-76
2023/08/25 09:06:58;;;;;;;2.63;0.70;;;;;;;;;;4942747;29;20028;-77
2023/08/25 09:09:24;;;;;;;2.15;0.70;;;;;;;;;;4924971;29;20034;-77
2023/08/25 09:11:50;;;;;;;1.95;0.70;;;;;;;;;;4942101;29;20067;-76
2023/08/25 09:14:26;;;;;;;2.42;0.65;;;;;;;;;;4942168;29;20107;-76
2023/08/25 09:16:56;;;;;;;2.60;0.70;;;;;;;;;;4925102;29;20111;-76
2023/08/25 09:19:23;;;;;;;1.90;0.60;;;;;;;;;;4942008;29;20023;-76
2023/08/25 09:21:49;;;;;;;2.88;0.60;;;;;;;;;;4941804;29;20036;-76
2023/08/25 09:24:22;;;;;;;1.88;0.47;;;;;;;;;;4942271;29;20031;-76
2023/08/25 09:26:48;;;;;;;2.28;0.68;;;;;;;;;;4924683;29;20035;-76
2023/08/25 09:29:14;;;;;;;3.13;0.63;;;;;;;;;;4924774;29;20062;-76
2023/08/25 09:31:41;;;;;;;2.42;0.40;;;;;;;;;;4941934;29;20031;-76
2023/08/25 09:34:07;;;;;;;2.67;0.60;;;;;;;;;;4924737;29;20024;-76
2023/08/25 09:36:33;;;;;;;3.20;0.60;;;;;;;;;;4941948;29;20091;-76
2023/08/25 09:39:02;;;;;;;3.97;0.70;;;;;;;;;;4933654;29;20103;-77
2023/08/25 09:41:29;;;;;;;3.33;0.65;;;;;;;;;;4920672;29;20197;-77
2023/08/25 09:43:59;;;;;;;1.73;0.60;;;;;;;;;;4941931;29;20112;-77
2023/08/25 09:46:28;;;;;;;1.15;0.50;;;;;;;;;;4924423;29;20032;-76
2023/08/25 09:49:00;;;;;;;1.98;0.65;;;;;;;;;;4941421;29;20095;-77
2023/08/25 09:51:27;;;;;;;2.33;0.55;;;;;;;;;;4941135;29;20031;-77
2023/08/25 09:53:54;;;;;;;1.10;0.60;;;;;;;;;;4924413;29;20450;-76
2023/08/25 09:56:20;;;;;;;2.00;0.70;;;;;;;;;;4941309;29;20083;-76
2023/08/25 09:58:46;;;;;;;1.75;0.60;;;;;;;;;;4941665;29;20079;-76
2023/08/25 10:01:12;;;;;;;2.00;0.47;;;;;;;;;;4941227;29;20026;-76
2023/08/25 10:03:38;;;;;;;1.42;0.50;;;;;;;;;;4941438;29;20082;-77
2023/08/25 10:06:05;;;;;;;1.83;0.65;;;;;;;;;;4940267;29;20055;-76
2023/08/25 10:08:31;;;;;;;1.85;0.55;;;;;;;;;;4921844;29;20032;-77
2023/08/25 10:10:59;;;;;;;2.90;0.70;;;;;;;;;;4939564;29;20027;-76
2023/08/25 10:13:26;;;;;;;2.55;0.50;;;;;;;;;;4940170;29;20035;-76
2023/08/25 10:15:54;;;;;;;1.75;0.60;;;;;;;;;;4922428;29;20058;-78
2023/08/25 10:18:20;;;;;;;1.20;0.60;;;;;;;;;;4940002;29;20149;-76
2023/08/25 10:20:46;;;;;;;1.35;0.60;;;;;;;;;;4940105;29;20027;-76
2023/08/25 10:23:14;;;;;;;1.50;0.40;;;;;;;;;;4939778;29;20115;-77
2023/08/25 10:25:40;;;;;;;1.65;0.70;;;;;;;;;;4922531;29;20079;-77
2023/08/25 10:28:08;;;;;;;1.73;0.60;;;;;;;;;;4939607;29;20102;-78
2023/08/25 10:30:34;;;;;;;1.70;0.50;;;;;;;;;;4922572;29;20612;-76
2023/08/25 10:33:10;;;;;;;2.20;0.60;;;;;;;;;;4939466;29;20489;-77
2023/08/25 10:35:40;;;;;;;1.95;0.60;;;;;;;;;;4939523;29;20024;-78
2023/08/25 10:38:18;;;;;;;1.67;0.65;;;;;;;;;;4938138;29;20136;-78
2023/08/25 10:40:48;;;;;;;2.15;0.50;;;;;;;;;;4912539;29;20126;-78
2023/08/25 10:43:14;;;;;;;2.72;0.60;;;;;;;;;;4939396;29;20496;-79
2023/08/25 10:45:40;;;;;;;3.83;0.50;;;;;;;;;;4922238;29;20580;-80
2023/08/25 10:48:06;;;;;;;1.67;0.60;;;;;;;;;;4923897;29;20051;-81
2023/08/25 10:50:33;;;;;;;1.90;0.40;;;;;;;;;;4939436;29;20082;-80
2023/08/25 10:52:59;;;;;;;2.45;0.50;;;;;;;;;;4939292;29;20038;-78
2023/08/25 10:55:26;;;;;;;2.13;0.70;;;;;;;;;;4939093;29;20023;-78
2023/08/25 10:57:53;;;;;;;1.05;0.32;;;;;;;;;;4939144;29;20469;-79
2023/08/25 11:00:33;;;;;;;2.47;0.70;;;;;;;;;;4939082;29;20024;-82
2023/08/25 11:03:01;;;;;;;1.67;0.63;;;;;;;;;;4939029;29;20028;-77
2023/08/25 11:05:28;;;;;;;3.00;1.08;;;;;;;;;;4938728;29;20031;-76
2023/08/25 11:07:55;;;;;;;2.65;0.70;;;;;;;;;;4938961;29;20035;-79
2023/08/25 11:10:25;;;;;;;1.80;0.60;;;;;;;;;;4938855;29;20552;-79
2023/08/25 11:12:53;;;;;;;1.83;0.60;;;;;;;;;;4939003;29;20050;-81
2023/08/25 11:15:19;;;;;;;1.40;0.55;;;;;;;;;;4921442;29;20031;-83
2023/08/25 11:17:46;;;;;;;1.25;0.50;;;;;;;;;;4938887;29;20429;-80
2023/08/25 11:20:12;;;;;;;1.27;0.60;;;;;;;;;;4921258;29;20031;-76
2023/08/25 11:22:58;;;;;;;1.27;0.60;;;;;;;;;;4938478;29;20063;-75
2023/08/25 11:25:25;;;;;;;1.42;0.50;;;;;;;;;;4938263;29;20034;-76
2023/08/25 11:27:51;;;;;;;0.95;0.43;;;;;;;;;;4921498;29;20487;-74
2023/08/25 11:30:17;;;;;;;0.88;0.45;;;;;;;;;;4921405;29;20058;-74
2023/08/25 11:32:47;;;;;;;1.30;0.50;;;;;;;;;;4938932;29;20028;-74
2023/08/25 11:35:13;;;;;;;1.10;0.40;;;;;;;;;;4938514;29;20122;-75
2023/08/25 11:37:39;;;;;;;1.35;0.40;;;;;;;;;;4938980;29;20098;-74
2023/08/25 11:40:26;;;;;;;1.17;0.60;;;;;;;;;;4925748;29;20099;-75
2023/08/25 11:42:53;;;;;;;1.45;0.57;;;;;;;;;;4938676;29;20031;-73
2023/08/25 11:45:19;;;;;;;0.90;0.47;;;;;;;;;;4939053;29;20043;-77
2023/08/25 11:47:45;;;;;;;1.17;0.60;;;;;;;;;;4938854;29;20038;-76
2023/08/25 11:50:11;;;;;;;1.95;0.50;;;;;;;;;;4938502;29;20056;-76
2023/08/25 11:52:37;;;;;;;0.95;0.55;;;;;;;;;;4938604;29;20031;-77
2023/08/25 11:55:03;;;;;;;1.77;0.52;;;;;;;;;;4938467;29;20095;-77
2023/08/25 11:57:36;;;;;;;0.90;0.50;;;;;;;;;;4938412;29;20035;-76
2023/08/25 12:00:03;;;;;;;1.00;0.50;;;;;;;;;;4938853;29;20023;-76
2023/08/25 12:02:29;;;;;;;1.27;0.63;;;;;;;;;;4938482;29;20032;-76
2023/08/25 12:04:56;;;;;;;1.10;0.60;;;;;;;;;;4938653;29;20092;-74
2023/08/25 12:07:22;;;;;;;2.45;0.55;;;;;;;;;;4938716;29;20035;-77
2023/08/25 12:09:53;;;;;;;1.73;0.60;;;;;;;;;;4938556;29;20054;-73
2023/08/25 12:12:19;;;;;;;0.88;0.40;;;;;;;;;;4937669;29;20078;-76
2023/08/25 12:14:45;;;;;;;1.20;0.50;;;;;;;;;;4948038;29;20110;-75
2023/08/25 12:17:20;;;;;;;2.63;0.52;;;;;;;;;;4944159;29;20512;-74
2023/08/25 12:22:31;;;;;;;1.23;0.50;;;;;;;;;;4948827;29;20114;-74
2023/08/25 12:24:57;;;;;;;0.98;0.40;;;;;;;;;;4947896;29;20027;-73
2023/08/25 12:27:23;;;;;;;1.15;0.30;;;;;;;;;;4945619;29;20068;-76
2023/08/25 12:29:49;;;;;;;2.22;0.50;;;;;;;;;;4933191;29;20026;-74
2023/08/25 12:32:15;;;;;;;1.52;0.50;;;;;;;;;;4954742;29;20881;-74
2023/08/25 12:34:41;;;;;;;1.38;0.50;;;;;;;;;;4958647;29;20481;-74
2023/08/25 12:37:06;;;;;;;1.50;0.52;;;21.90;65.30;;;;;;4943344;29;20087;-75
2023/08/25 12:39:32;;;;;;;0.95;0.40;;;21.70;65.80;;;;;;4930191;29;20028;-75
2023/08/25 12:41:58;;;;;;;1.13;0.52;;;21.80;66.70;;;;;;4942319;29;20145;-74
2023/08/25 12:44:23;;;;;;;0.73;0.40;;;21.80;63.30;;;;;;4942784;29;20385;-74
2023/08/25 12:46:49;;;;;;;2.08;0.43;;;21.80;63.60;;;;;;4942736;29;20488;-73
2023/08/25 12:49:15;;;;;;;1.65;0.50;;;22.00;67.30;;;;;;4942399;29;20035;-74
2023/08/25 12:51:41;;;;;;;0.65;0.30;;;22.20;65.90;;;;;;4942375;29;20499;-74
2023/08/25 12:54:14;;;;;;;1.83;0.50;;;22.30;67.10;;;;;;4942832;29;20024;-75
2023/08/25 12:56:41;;;;;;;0.52;0.35;;;22.30;63.80;;;;;;4942515;29;20031;-74
2023/08/25 12:59:07;;;;;;;0.50;0.30;;;22.10;61.70;;;;;;4925432;29;20102;-74
2023/08/25 13:01:33;;;;;;;0.77;0.35;;;21.90;61.50;;;;;;4925246;29;20067;-74
2023/08/25 13:03:59;;;;;;;1.67;0.43;;;21.70;61.30;;;;;;4942162;29;20075;-74
2023/08/25 13:06:25;;;;;;;2.25;0.55;;;21.70;62.90;;;;;;4942299;29;20032;-74
2023/08/25 13:08:50;;;;;;;1.00;0.40;;;21.70;65.70;;;;;;4924976;29;20118;-72
2023/08/25 13:11:16;;;;;;;0.70;0.30;;;21.80;63.30;;;;;;4942257;29;20086;-75
2023/08/25 13:13:41;;;;;;;1.77;0.38;;;21.90;62.20;;;;;;4942141;29;20027;-75
2023/08/25 13:16:10;;;;;;;0.90;0.50;;;21.80;62.20;;;;;;4942329;29;20034;-75
2023/08/25 13:18:36;;;;;;;1.58;0.50;;;21.80;62.30;;;;;;4941702;29;20477;-75
2023/08/25 13:21:02;;;;;;;1.10;0.50;;;22.00;65.40;;;;;;4942041;29;20027;-74
2023/08/25 13:23:27;;;;;;;1.00;0.30;;;22.00;62.30;;;;;;4942093;29;20052;-75
2023/08/25 13:25:53;;;;;;;0.93;0.40;;;22.00;61.00;;;;;;4941983;29;20027;-74
2023/08/25 13:28:19;;;;;;;1.02;0.50;;;21.90;63.10;;;;;;4942161;29;20031;-73
2023/08/25 13:30:44;;;;;;;1.38;0.55;;;22.10;63.90;;;;;;4942208;29;20674;-74
2023/08/25 13:33:10;;;;;;;1.05;0.40;;;22.20;64.00;;;;;;4941840;29;20035;-74
2023/08/25 13:35:36;;;;;;;0.95;0.50;;;22.10;62.50;;;;;;4941725;29;20031;-75
2023/08/25 13:38:02;;;;;;;1.90;0.50;;;22.30;63.20;;;;;;4940983;29;20020;-74
2023/08/25 13:40:28;;;;;;;1.45;0.40;;;22.40;61.40;;;;;;4912539;29;20024;-75
2023/08/25 13:42:54;;;;;;;1.58;0.50;;;22.40;63.00;;;;;;4923774;29;20048;-73
2023/08/25 13:45:20;;;;;;;2.08;0.50;;;22.60;59.70;;;;;;4941578;29;20461;-74
2023/08/25 13:47:46;;;;;;;1.17;0.38;;;22.50;57.20;;;;;;4949393;29;20106;-72
2023/08/25 13:50:12;;;;;;;0.80;0.43;;;22.60;59.80;;;;;;4937329;29;20036;-75
2023/08/25 13:52:38;;;;;;;1.45;0.40;;;22.70;59.80;;;;;;4940551;29;20111;-75
2023/08/25 13:55:05;;;;;;;0.98;0.40;;;22.60;59.70;;;;;;4941162;29;20031;-71
2023/08/25 13:57:30;;;;;;;1.42;0.60;;;22.40;58.10;;;;;;4923938;29;20024;-72
2023/08/25 13:59:56;;;;;;;1.10;0.50;;;22.30;58.60;;;;;;4941270;29;20082;-72
2023/08/25 14:02:22;;;;;;;0.50;0.28;;;22.10;57.70;;;;;;4925538;29;20027;-72
2023/08/25 14:04:48;;;;;;;1.23;0.40;;;22.30;59.70;;;;;;4940457;29;20042;-69
2023/08/25 14:07:13;;;;;;;1.15;0.40;;;22.30;57.90;;;;;;4941357;29;20484;-73
2023/08/25 14:09:40;;;;;;;0.50;0.32;;;22.50;61.30;;;;;;4941331;29;20115;-74
2023/08/25 14:12:06;;;;;;;1.27;0.43;;;22.60;59.10;;;;;;4941117;29;20430;-74
2023/08/25 14:14:32;;;;;;;1.10;0.30;;;22.80;59.80;;;;;;4941075;29;20039;-75
2023/08/25 14:17:00;;;;;;;0.85;0.30;;;22.80;57.10;;;;;;4940909;29;20040;-75
2023/08/25 14:19:25;;;;;;;1.15;0.40;;;22.80;57.90;;;;;;4923723;29;20457;-75
2023/08/25 14:21:51;;;;;;;1.05;0.30;;;22.70;59.10;;;;;;4940680;29;20118;-71
2023/08/25 14:24:18;;;;;;;0.88;0.43;;;22.50;58.00;;;;;;4941035;29;20046;-71
2023/08/25 14:26:45;;;;;;;1.17;0.60;;;22.50;58.70;;;;;;4940944;29;20484;-71